createdAt,value
2023-05-27T00:00:37.673Z,4.97
2023-05-27T00:03:04.353Z,5.43
2023-05-27T00:05:30.996Z,5.07
2023-05-27T00:07:57.583Z,4.60
2023-05-27T00:10:24.193Z,4.20
2023-05-27T00:12:50.712Z,4.63
2023-05-27T00:15:18.665Z,4.47
2023-05-27T00:17:45.265Z,4.65
2023-05-27T00:20:14.006Z,4.15
2023-05-27T00:22:41.682Z,4.65
2023-05-27T00:25:08.855Z,4.50
2023-05-27T00:27:35.939Z,3.90
2023-05-27T00:30:03.865Z,4.45
2023-05-27T00:32:30.518Z,4.13
2023-05-27T00:34:57.082Z,5.15
2023-05-27T00:37:23.773Z,5.25
2023-05-27T00:39:50.427Z,4.03
2023-05-27T00:42:21.069Z,4.85
2023-05-27T00:44:47.633Z,4.70
2023-05-27T00:47:17.020Z,5.10
2023-05-27T00:49:44.195Z,3.58
2023-05-27T00:52:10.826Z,3.90
2023-05-27T00:54:37.668Z,4.43
2023-05-27T00:57:04.553Z,4.43
2023-05-27T00:59:31.355Z,4.18
2023-05-27T01:01:57.944Z,3.95
2023-05-27T01:04:26.253Z,4.60
2023-05-27T01:07:15.750Z,3.88
2023-05-27T01:10:07.105Z,4.20
2023-05-27T01:12:56.336Z,4.03
2023-05-27T01:15:24.688Z,4.38
2023-05-27T01:17:55.704Z,4.15
2023-05-27T01:20:22.540Z,4.03
2023-05-27T01:22:53.307Z,4.22
2023-05-27T01:25:23.012Z,4.28
2023-05-27T01:27:49.843Z,3.67
2023-05-27T01:30:16.654Z,3.88
2023-05-27T01:33:18.946Z,4.35
2023-05-27T01:35:59.241Z,3.85
2023-05-27T01:38:28.914Z,3.53
2023-05-27T01:40:56.601Z,4.15
2023-05-27T01:43:23.691Z,4.57
2023-05-27T01:45:50.722Z,4.55
2023-05-27T01:48:17.627Z,3.67
2023-05-27T01:50:44.163Z,3.47
2023-05-27T01:53:11.584Z,4.68
2023-05-27T01:55:38.191Z,4.95
2023-05-27T01:58:04.858Z,3.72
2023-05-27T02:00:31.417Z,4.22
2023-05-27T02:02:58.044Z,3.70
2023-05-27T02:05:24.778Z,3.90
2023-05-27T02:07:51.380Z,4.47
2023-05-27T02:10:18.007Z,4.03
2023-05-27T02:12:44.502Z,4.95
2023-05-27T02:15:11.386Z,3.78
2023-05-27T02:17:38.966Z,4.28
2023-05-27T02:20:06.536Z,4.05
2023-05-27T02:22:33.131Z,5.25
2023-05-27T02:24:59.672Z,4.47
2023-05-27T02:27:26.194Z,3.92
2023-05-27T02:29:52.951Z,4.05
2023-05-27T02:32:19.508Z,3.25
2023-05-27T02:34:46.092Z,4.05
2023-05-27T02:37:12.647Z,4.18
2023-05-27T02:39:39.977Z,4.00
2023-05-27T02:42:07.437Z,4.38
2023-05-27T02:44:34.000Z,3.53
2023-05-27T02:47:00.677Z,3.70
2023-05-27T02:49:27.214Z,4.22
2023-05-27T02:51:53.718Z,3.92
2023-05-27T02:54:20.397Z,4.63
2023-05-27T02:56:46.983Z,4.07
2023-05-27T02:59:13.534Z,4.57
2023-05-27T03:01:40.146Z,4.53
2023-05-27T03:04:06.846Z,4.10
2023-05-27T03:06:33.583Z,3.38
2023-05-27T03:09:00.856Z,4.18
2023-05-27T03:11:27.478Z,4.22
2023-05-27T03:13:54.018Z,4.03
2023-05-27T03:16:20.710Z,4.28
2023-05-27T03:18:47.421Z,4.95
2023-05-27T03:21:14.093Z,3.92
2023-05-27T03:23:40.764Z,3.80
2023-05-27T03:26:07.391Z,3.97
2023-05-27T03:28:33.956Z,4.07
2023-05-27T03:31:00.527Z,4.15
2023-05-27T03:33:27.140Z,3.95
2023-05-27T03:35:53.700Z,4.40
2023-05-27T03:38:20.290Z,4.50
2023-05-27T03:40:46.841Z,4.28
2023-05-27T03:43:13.432Z,4.53
2023-05-27T03:45:40.031Z,4.18
2023-05-27T03:48:06.675Z,4.45
2023-05-27T03:50:34.649Z,3.70
2023-05-27T03:53:01.346Z,4.18
2023-05-27T03:55:28.084Z,3.95
2023-05-27T03:57:54.670Z,3.97
2023-05-27T04:00:21.577Z,4.72
2023-05-27T04:02:48.417Z,4.38
2023-05-27T04:05:17.628Z,4.00
2023-05-27T04:07:44.179Z,4.50
2023-05-27T04:10:11.174Z,4.63
2023-05-27T04:12:37.717Z,4.50
2023-05-27T04:15:04.598Z,4.30
2023-05-27T04:17:31.280Z,4.10
2023-05-27T04:19:57.925Z,4.47
2023-05-27T04:22:24.458Z,4.30
2023-05-27T04:24:54.107Z,4.38
2023-05-27T04:27:20.619Z,4.55
2023-05-27T04:29:48.637Z,5.00
2023-05-27T04:32:15.250Z,5.03
2023-05-27T04:34:42.434Z,4.60
2023-05-27T04:37:11.558Z,4.22
2023-05-27T04:39:41.970Z,3.78
2023-05-27T04:42:10.027Z,4.47
2023-05-27T04:44:36.529Z,4.72
2023-05-27T04:47:03.108Z,4.47
2023-05-27T04:49:29.749Z,3.15
2023-05-27T04:51:56.349Z,3.72
2023-05-27T04:54:23.571Z,3.05
2023-05-27T04:56:52.943Z,3.55
2023-05-27T04:59:22.587Z,3.05
2023-05-27T05:02:07.809Z,3.00
2023-05-27T05:04:34.370Z,2.88
2023-05-27T05:07:01.048Z,3.33
2023-05-27T05:09:27.954Z,3.60
2023-05-27T05:11:54.472Z,2.80
2023-05-27T05:14:20.995Z,3.10
2023-05-27T05:16:48.223Z,2.83
2023-05-27T05:19:14.852Z,2.92
2023-05-27T05:21:41.414Z,2.83
2023-05-27T05:24:08.114Z,3.47
2023-05-27T05:26:34.734Z,2.72
2023-05-27T05:29:01.254Z,3.30
2023-05-27T05:31:28.200Z,2.75
2023-05-27T05:33:54.744Z,2.33
2023-05-27T05:36:22.153Z,3.05
2023-05-27T05:38:48.741Z,3.03
2023-05-27T05:41:15.420Z,2.47
2023-05-27T05:43:41.979Z,2.50
2023-05-27T05:46:08.649Z,3.25
2023-05-27T05:48:35.272Z,3.67
2023-05-27T05:51:02.145Z,3.55
2023-05-27T05:53:30.268Z,3.13
2023-05-27T05:55:56.805Z,3.28
2023-05-27T05:58:23.497Z,3.13
2023-05-27T06:00:50.273Z,3.17
2023-05-27T06:03:17.009Z,3.22
2023-05-27T06:05:43.676Z,4.00
2023-05-27T06:08:10.429Z,3.47
2023-05-27T06:10:37.035Z,3.00
2023-05-27T06:13:04.126Z,2.80
2023-05-27T06:15:31.803Z,2.95
2023-05-27T06:17:58.438Z,3.38
2023-05-27T06:20:25.113Z,3.05
2023-05-27T06:22:51.703Z,3.22
2023-05-27T06:25:18.291Z,3.17
2023-05-27T06:27:44.832Z,2.97
2023-05-27T06:30:11.784Z,3.67
2023-05-27T06:32:38.329Z,3.33
2023-05-27T06:35:05.444Z,3.80
2023-05-27T06:37:31.999Z,3.22
2023-05-27T06:39:58.534Z,3.70
2023-05-27T06:42:25.091Z,3.00
2023-05-27T06:44:51.840Z,3.10
2023-05-27T06:47:18.588Z,3.30
2023-05-27T06:49:45.191Z,3.28
2023-05-27T06:52:14.015Z,3.55
2023-05-27T06:57:08.085Z,3.63
2023-05-27T06:59:35.201Z,3.88
2023-05-27T07:02:01.891Z,3.05
2023-05-27T07:04:28.602Z,3.55
2023-05-27T07:06:55.242Z,3.22
2023-05-27T07:09:22.016Z,3.08
2023-05-27T07:11:48.640Z,3.05
2023-05-27T07:14:15.717Z,3.72
2023-05-27T07:16:42.618Z,3.70
2023-05-27T07:19:09.286Z,3.25
2023-05-27T07:21:35.882Z,3.60
2023-05-27T07:24:05.013Z,3.28
2023-05-27T07:26:32.281Z,3.25
2023-05-27T07:29:01.147Z,3.45
2023-05-27T07:31:28.891Z,3.00
2023-05-27T07:33:55.531Z,2.90
2023-05-27T07:36:22.230Z,3.78
2023-05-27T07:38:48.822Z,3.35
2023-05-27T07:41:15.482Z,3.20
2023-05-27T07:43:42.239Z,4.25
2023-05-27T07:46:08.804Z,2.88
2023-05-27T07:48:35.427Z,2.92
2023-05-27T07:51:02.122Z,3.42
2023-05-27T07:53:28.707Z,2.70
2023-05-27T07:55:55.227Z,2.78
2023-05-27T07:58:21.814Z,2.85
2023-05-27T08:00:48.664Z,2.85
2023-05-27T08:03:15.777Z,3.35
2023-05-27T08:05:42.970Z,3.50
2023-05-27T08:08:09.640Z,4.32
2023-05-27T08:10:36.283Z,2.70
2023-05-27T08:13:02.921Z,2.63
2023-05-27T08:15:29.442Z,3.67
2023-05-27T08:17:56.274Z,2.60
2023-05-27T08:20:23.173Z,3.53
2023-05-27T08:22:49.764Z,3.55
2023-05-27T08:25:17.442Z,2.97
2023-05-27T08:27:55.126Z,3.13
2023-05-27T08:30:22.257Z,2.35
2023-05-27T08:32:50.328Z,2.38
2023-05-27T08:35:19.637Z,2.30
2023-05-27T08:37:46.235Z,2.72
2023-05-27T08:40:15.791Z,2.67
2023-05-27T08:42:42.706Z,2.88
2023-05-27T08:45:12.946Z,2.30
2023-05-27T08:47:40.245Z,2.38
2023-05-27T08:50:08.396Z,2.65
2023-05-27T08:52:48.148Z,3.08
2023-05-27T08:55:20.744Z,2.22
2023-05-27T08:57:52.363Z,2.40
2023-05-27T09:00:20.165Z,2.58
2023-05-27T09:02:47.414Z,3.10
2023-05-27T09:05:15.079Z,2.83
2023-05-27T09:07:41.846Z,2.90
2023-05-27T09:10:08.780Z,2.70
2023-05-27T09:12:36.798Z,2.15
2023-05-27T09:15:06.822Z,2.47
2023-05-27T09:17:33.385Z,3.03
2023-05-27T09:20:00.090Z,2.33
2023-05-27T09:22:30.038Z,1.80
2023-05-27T09:24:57.385Z,2.33
2023-05-27T09:27:32.063Z,2.35
2023-05-27T09:30:07.820Z,3.00
2023-05-27T09:32:34.745Z,2.53
2023-05-27T09:35:02.981Z,2.80
2023-05-27T09:37:35.336Z,2.53
2023-05-27T09:40:09.357Z,2.65
2023-05-27T09:42:44.841Z,2.30
2023-05-27T09:45:20.357Z,2.50
2023-05-27T09:47:54.890Z,2.00
2023-05-27T09:50:22.834Z,2.25
2023-05-27T09:53:05.138Z,1.77
2023-05-27T09:55:36.977Z,1.83
2023-05-27T09:58:04.014Z,2.65
2023-05-27T10:00:31.613Z,1.98
2023-05-27T10:03:01.500Z,2.30
2023-05-27T10:05:29.200Z,2.50
2023-05-27T10:10:25.717Z,2.28
2023-05-27T10:12:55.070Z,2.50
2023-05-27T10:15:28.465Z,2.35
2023-05-27T10:18:00.531Z,2.30
2023-05-27T10:20:38.874Z,2.88
2023-05-27T10:23:22.458Z,2.10
2023-05-27T10:25:49.339Z,2.65
2023-05-27T10:28:33.910Z,1.58
2023-05-27T10:31:11.550Z,2.22
2023-05-27T10:33:49.087Z,2.20
2023-05-27T10:36:17.687Z,2.03
2023-05-27T10:41:23.542Z,2.43
2023-05-27T10:44:01.013Z,2.85
2023-05-27T10:46:28.001Z,2.65
2023-05-27T10:48:54.898Z,2.40
2023-05-27T10:51:32.692Z,2.38
2023-05-27T10:54:23.311Z,2.22
2023-05-27T10:56:53.293Z,2.10
2023-05-27T10:59:24.283Z,1.73
2023-05-27T11:01:54.947Z,2.65
2023-05-27T11:04:22.800Z,1.80
2023-05-27T11:07:04.368Z,1.80
2023-05-27T11:09:32.424Z,2.50
2023-05-27T11:12:06.481Z,2.23
2023-05-27T11:14:33.134Z,2.15
2023-05-27T11:16:59.728Z,2.67
2023-05-27T11:19:26.835Z,2.30
2023-05-27T11:21:53.367Z,2.28
2023-05-27T11:24:21.298Z,2.60
2023-05-27T11:26:48.795Z,2.65
2023-05-27T11:29:15.984Z,2.58
2023-05-27T11:31:48.270Z,2.38
2023-05-27T11:34:15.988Z,2.58
2023-05-27T11:36:46.494Z,2.63
2023-05-27T11:39:19.599Z,2.25
2023-05-27T11:41:56.395Z,2.35
2023-05-27T11:44:26.439Z,2.25
2023-05-27T11:47:03.167Z,1.77
2023-05-27T11:49:29.910Z,2.08
2023-05-27T11:51:57.906Z,2.70
2023-05-27T11:54:29.300Z,2.25
2023-05-27T11:56:57.337Z,2.50
2023-05-27T11:59:24.867Z,2.13
2023-05-27T12:01:52.521Z,3.40
2023-05-27T12:04:19.141Z,2.50
2023-05-27T12:06:46.937Z,2.22
2023-05-27T12:09:13.689Z,1.90
2023-05-27T12:11:40.271Z,2.45
2023-05-27T12:14:06.930Z,2.63
2023-05-27T12:16:33.673Z,2.85
2023-05-27T12:19:01.006Z,2.58
2023-05-27T12:21:27.853Z,2.65
2023-05-27T12:23:56.048Z,2.80
2023-05-27T12:26:23.296Z,2.38
2023-05-27T12:28:49.975Z,2.17
2023-05-27T12:31:17.321Z,2.70
2023-05-27T12:33:43.961Z,2.63
2023-05-27T12:36:12.089Z,2.92
2023-05-27T12:38:38.666Z,2.58
2023-05-27T12:41:05.347Z,2.63
2023-05-27T12:43:31.886Z,2.00
2023-05-27T12:45:59.062Z,2.72
2023-05-27T12:48:25.652Z,3.00
2023-05-27T12:50:52.444Z,2.20
2023-05-27T12:53:18.951Z,2.33
2023-05-27T12:55:46.047Z,2.58
2023-05-27T12:58:12.744Z,2.67
2023-05-27T13:00:39.418Z,2.55
2023-05-27T13:03:06.033Z,2.05
2023-05-27T13:05:32.903Z,2.15
2023-05-27T13:08:05.645Z,2.10
2023-05-27T13:10:32.457Z,2.45
2023-05-27T13:13:01.096Z,1.83
2023-05-27T13:15:28.160Z,2.50
2023-05-27T13:17:55.414Z,2.20
2023-05-27T13:20:24.934Z,2.92
2023-05-27T13:22:52.164Z,2.78
2023-05-27T13:25:18.923Z,2.20
2023-05-27T13:27:48.601Z,2.05
2023-05-27T13:32:44.050Z,2.28
2023-05-27T13:35:12.386Z,2.97
2023-05-27T13:37:42.872Z,2.42
2023-05-27T13:40:10.475Z,2.17
2023-05-27T13:42:37.874Z,1.90
2023-05-27T13:45:05.098Z,2.42
2023-05-27T13:47:32.071Z,2.35
2023-05-27T13:49:58.758Z,2.03
2023-05-27T13:52:25.368Z,2.10
2023-05-27T13:54:51.873Z,2.03
2023-05-27T13:57:18.445Z,2.40
2023-05-27T13:59:44.985Z,2.03
2023-05-27T14:02:11.603Z,2.38
2023-05-27T14:04:38.135Z,2.50
2023-05-27T14:07:04.924Z,2.88
2023-05-27T14:09:31.423Z,2.75
2023-05-27T14:11:58.774Z,2.42
2023-05-27T14:14:25.339Z,2.80
2023-05-27T14:16:51.969Z,1.98
2023-05-27T14:19:18.753Z,1.90
2023-05-27T14:21:46.372Z,1.90
2023-05-27T14:24:16.521Z,2.10
2023-05-27T14:26:44.677Z,2.08
2023-05-27T14:29:11.655Z,2.10
2023-05-27T14:31:38.369Z,2.50
2023-05-27T14:34:05.066Z,1.98
2023-05-27T14:36:31.637Z,2.38
2023-05-27T14:38:58.202Z,1.90
2023-05-27T14:41:24.805Z,2.03
2023-05-27T14:43:55.233Z,2.03
2023-05-27T14:46:22.672Z,1.95
2023-05-27T14:48:49.370Z,2.85
2023-05-27T14:51:16.586Z,1.73
2023-05-27T14:53:43.152Z,2.17
2023-05-27T14:56:09.700Z,2.80
2023-05-27T14:58:36.498Z,1.92
2023-05-27T15:01:03.414Z,2.30
2023-05-27T15:03:31.226Z,1.90
2023-05-27T15:05:59.410Z,1.75
2023-05-27T15:08:26.348Z,3.10
2023-05-27T15:10:53.052Z,2.78
2023-05-27T15:13:20.724Z,2.25
2023-05-27T15:15:47.678Z,3.50
2023-05-27T15:18:14.468Z,1.83
2023-05-27T15:20:41.339Z,2.15
2023-05-27T15:23:07.974Z,2.05
2023-05-27T15:25:34.688Z,1.90
2023-05-27T15:28:01.242Z,2.15
2023-05-27T15:30:27.966Z,2.30
2023-05-27T15:32:54.661Z,5.00
2023-05-27T15:35:21.544Z,2.85
2023-05-27T15:37:48.251Z,3.05
2023-05-27T15:40:14.875Z,2.50
2023-05-27T15:42:41.461Z,2.60
2023-05-27T15:45:08.714Z,2.55
2023-05-27T15:47:35.674Z,3.75
2023-05-27T15:50:03.854Z,2.70
2023-05-27T15:52:30.827Z,2.35
2023-05-27T15:54:57.444Z,2.50
2023-05-27T15:57:24.421Z,2.10
2023-05-27T15:59:51.576Z,3.05
2023-05-27T16:02:18.271Z,2.55
2023-05-27T16:04:45.177Z,2.42
2023-05-27T16:07:11.800Z,2.45
2023-05-27T16:09:39.139Z,2.05
2023-05-27T16:12:06.222Z,2.25
2023-05-27T16:14:32.936Z,2.28
2023-05-27T16:16:59.700Z,2.15
2023-05-27T16:19:27.089Z,2.15
2023-05-27T16:21:53.644Z,3.10
2023-05-27T16:24:20.404Z,3.30
2023-05-27T16:26:46.940Z,2.30
2023-05-27T16:29:13.487Z,3.35
2023-05-27T16:31:40.094Z,3.63
2023-05-27T16:34:08.146Z,3.95
2023-05-27T16:36:34.772Z,7.78
2023-05-27T16:39:01.281Z,3.63
2023-05-27T16:41:27.996Z,3.13
2023-05-27T16:43:54.924Z,5.30
2023-05-27T16:46:21.606Z,10.60
2023-05-27T16:48:49.002Z,3.13
2023-05-27T16:51:15.847Z,3.95
2023-05-27T16:53:42.493Z,4.85
2023-05-27T16:56:09.622Z,3.00
2023-05-27T16:58:36.176Z,2.22
2023-05-27T17:01:03.234Z,2.13
2023-05-27T17:03:30.496Z,2.78
2023-05-27T17:05:58.141Z,2.03
2023-05-27T17:08:25.454Z,2.50
2023-05-27T17:10:52.484Z,1.77
2023-05-27T17:13:19.933Z,2.05
2023-05-27T17:15:47.056Z,1.80
2023-05-27T17:18:13.875Z,3.08
2023-05-27T17:20:40.510Z,1.80
2023-05-27T17:23:07.054Z,2.60
2023-05-27T17:25:33.631Z,2.00
2023-05-27T17:28:00.280Z,2.15
2023-05-27T17:30:26.921Z,2.13
2023-05-27T17:32:53.511Z,2.50
2023-05-27T17:35:20.601Z,2.47
2023-05-27T17:37:47.262Z,2.33
2023-05-27T17:40:13.841Z,1.83
2023-05-27T17:42:40.569Z,2.00
2023-05-27T17:45:07.656Z,2.30
2023-05-27T17:47:34.306Z,2.53
2023-05-27T17:50:00.901Z,2.45
2023-05-27T17:52:29.712Z,2.50
2023-05-27T17:54:56.292Z,2.00
2023-05-27T17:57:22.935Z,2.28
2023-05-27T17:59:49.850Z,2.55
2023-05-27T18:02:17.898Z,3.13
2023-05-27T18:04:44.769Z,1.95
2023-05-27T18:07:11.522Z,2.50
2023-05-27T18:09:40.813Z,2.70
2023-05-27T18:12:10.885Z,2.50
2023-05-27T18:14:37.411Z,2.30
2023-05-27T18:17:06.148Z,1.95
2023-05-27T18:19:33.411Z,2.92
2023-05-27T18:22:00.039Z,1.85
2023-05-27T18:24:26.637Z,2.17
2023-05-27T18:26:54.005Z,2.58
2023-05-27T18:29:20.613Z,2.60
2023-05-27T18:31:47.183Z,2.40
2023-05-27T18:34:15.340Z,2.88
2023-05-27T18:36:42.189Z,2.65
2023-05-27T18:39:08.867Z,3.15
2023-05-27T18:41:35.567Z,2.50
2023-05-27T18:44:02.240Z,2.85
2023-05-27T18:46:28.834Z,2.92
2023-05-27T18:48:55.561Z,2.67
2023-05-27T18:51:22.826Z,3.10
2023-05-27T18:53:49.699Z,2.70
2023-05-27T18:56:16.479Z,2.50
2023-05-27T18:58:43.132Z,2.42
2023-05-27T19:01:09.743Z,3.70
2023-05-27T19:03:36.435Z,2.45
2023-05-27T19:06:03.358Z,3.08
2023-05-27T19:08:29.885Z,2.60
2023-05-27T19:10:56.599Z,3.08
2023-05-27T19:13:23.392Z,3.05
2023-05-27T19:15:50.013Z,2.80
2023-05-27T19:18:17.149Z,2.33
2023-05-27T19:20:44.009Z,2.40
2023-05-27T19:23:10.889Z,2.38
2023-05-27T19:25:37.540Z,2.90
2023-05-27T19:28:04.512Z,2.65
2023-05-27T19:30:31.097Z,3.25
2023-05-27T19:32:57.996Z,2.40
2023-05-27T19:35:24.744Z,2.55
2023-05-27T19:37:51.446Z,2.28
2023-05-27T19:40:18.097Z,2.35
2023-05-27T19:42:44.634Z,2.45
2023-05-27T19:45:11.515Z,2.60
2023-05-27T19:47:38.233Z,2.30
2023-05-27T19:50:05.625Z,2.55
2023-05-27T19:52:32.179Z,2.92
2023-05-27T19:55:00.968Z,2.13
2023-05-27T19:57:28.087Z,2.78
2023-05-27T19:59:54.684Z,2.60
2023-05-27T20:02:21.282Z,2.03
2023-05-27T20:04:47.816Z,2.40
2023-05-27T20:07:14.383Z,2.30
2023-05-27T20:09:41.084Z,2.08
2023-05-27T20:12:07.990Z,2.55
2023-05-27T20:14:34.610Z,2.40
2023-05-27T20:17:01.238Z,2.28
2023-05-27T20:19:27.867Z,2.67
2023-05-27T20:21:54.392Z,2.30
2023-05-27T20:24:20.956Z,2.45
2023-05-27T20:26:47.504Z,2.47
2023-05-27T20:29:14.094Z,2.97
2023-05-27T20:31:40.815Z,4.63
2023-05-27T20:34:07.970Z,5.35
2023-05-27T20:36:34.864Z,4.72
2023-05-27T20:39:01.401Z,4.43
2023-05-27T20:41:28.116Z,4.72
2023-05-27T20:43:59.989Z,6.88
2023-05-27T20:46:28.211Z,7.43
2023-05-27T20:48:56.545Z,6.30
2023-05-27T20:51:24.467Z,5.70
2023-05-27T20:53:52.499Z,5.10
2023-05-27T20:56:19.228Z,4.15
2023-05-27T20:58:46.506Z,4.03
2023-05-27T21:01:13.097Z,4.93
2023-05-27T21:03:40.014Z,5.47
2023-05-27T21:06:07.104Z,5.65
2023-05-27T21:08:33.662Z,6.38
2023-05-27T21:11:00.265Z,5.90
2023-05-27T21:13:26.890Z,5.72
2023-05-27T21:15:53.413Z,5.43
2023-05-27T21:18:19.970Z,4.18
2023-05-27T21:20:46.714Z,4.57
2023-05-27T21:23:13.431Z,3.83
2023-05-27T21:25:40.980Z,3.72
2023-05-27T21:28:07.505Z,3.20
2023-05-27T21:30:34.071Z,3.38
2023-05-27T21:33:01.118Z,3.28
2023-05-27T21:35:27.825Z,3.58
2023-05-27T21:37:54.380Z,3.13
2023-05-27T21:40:21.598Z,3.53
2023-05-27T21:42:48.243Z,3.63
2023-05-27T21:45:14.793Z,3.60
2023-05-27T21:47:41.466Z,3.75
2023-05-27T21:50:08.435Z,3.28
2023-05-27T21:52:35.025Z,3.47
2023-05-27T21:55:01.671Z,3.33
2023-05-27T21:57:28.276Z,3.55
2023-05-27T21:59:57.018Z,3.50
2023-05-27T22:02:24.242Z,3.83
2023-05-27T22:04:51.002Z,3.20
2023-05-27T22:07:17.632Z,3.30
2023-05-27T22:09:45.199Z,4.10
2023-05-27T22:12:13.510Z,3.35
2023-05-27T22:14:40.201Z,3.97
2023-05-27T22:17:07.848Z,3.65
2023-05-27T22:19:34.756Z,3.15
2023-05-27T22:22:01.420Z,3.63
2023-05-27T22:24:28.043Z,3.97
2023-05-27T22:26:54.913Z,4.15
2023-05-27T22:29:22.034Z,4.03
2023-05-27T22:31:48.683Z,4.32
2023-05-27T22:34:15.390Z,4.75
2023-05-27T22:36:41.994Z,4.10
2023-05-27T22:39:10.187Z,4.03
2023-05-27T22:41:37.215Z,3.60
2023-05-27T22:44:04.028Z,2.78
2023-05-27T22:46:31.775Z,3.63
2023-05-27T22:48:58.389Z,3.97
2023-05-27T22:51:26.524Z,3.17
2023-05-27T22:53:53.117Z,3.17
2023-05-27T22:56:19.895Z,2.97
2023-05-27T22:58:46.443Z,3.42
2023-05-27T23:01:13.105Z,3.50
2023-05-27T23:03:39.910Z,3.65
2023-05-27T23:06:06.828Z,3.05
2023-05-27T23:08:33.371Z,3.30
2023-05-27T23:10:59.889Z,3.47
2023-05-27T23:13:26.454Z,3.03
2023-05-27T23:15:53.915Z,3.15
2023-05-27T23:18:20.855Z,2.90
2023-05-27T23:20:47.630Z,2.75
2023-05-27T23:23:14.354Z,3.35
2023-05-27T23:25:40.949Z,3.05
2023-05-27T23:28:07.688Z,3.28
2023-05-27T23:30:34.278Z,3.53
2023-05-27T23:33:01.025Z,3.03
2023-05-27T23:35:27.633Z,3.15
2023-05-27T23:37:54.485Z,2.80
2023-05-27T23:40:21.165Z,2.83
2023-05-27T23:42:49.237Z,2.85
2023-05-27T23:45:16.346Z,3.20
2023-05-27T23:47:42.941Z,3.35
2023-05-27T23:50:10.236Z,3.17
2023-05-27T23:52:36.821Z,3.45
2023-05-27T23:55:04.099Z,3.40
2023-05-27T23:57:30.887Z,3.20
